createdAt,value
2019-04-23T00:00:36.554Z,4.53
2019-04-23T00:03:05.792Z,4.60
2019-04-23T00:08:11.459Z,5.00
2019-04-23T00:10:53.679Z,5.37
2019-04-23T00:13:01.045Z,4.90
2019-04-23T00:15:43.903Z,5.00
2019-04-23T00:18:15.500Z,4.70
2019-04-23T00:20:41.743Z,5.25
2019-04-23T00:23:11.100Z,5.67
2019-04-23T00:25:52.648Z,5.10
2019-04-23T00:28:20.571Z,5.12
2019-04-23T00:30:49.656Z,5.87
2019-04-23T00:33:20.188Z,5.25
2019-04-23T00:35:43.298Z,5.13
2019-04-23T00:38:28.773Z,4.93
2019-04-23T00:41:02.955Z,5.20
2019-04-23T00:43:22.353Z,5.37
2019-04-23T00:45:48.876Z,5.50
2019-04-23T00:48:28.232Z,5.47
2019-04-23T00:50:59.060Z,5.50
2019-04-23T00:53:25.185Z,5.40
2019-04-23T00:58:32.394Z,5.00
2019-04-23T01:01:03.915Z,5.57
2019-04-23T01:03:29.391Z,5.40
2019-04-23T01:05:52.645Z,5.97
2019-04-23T01:08:25.006Z,5.57
2019-04-23T01:11:16.652Z,5.90
2019-04-23T01:13:39.471Z,5.75
2019-04-23T01:16:05.676Z,6.10
2019-04-23T01:18:46.785Z,5.55
2019-04-23T01:21:03.624Z,6.20
2019-04-23T01:23:57.546Z,5.92
2019-04-23T01:26:47.266Z,5.50
2019-04-23T01:29:21.356Z,6.27
2019-04-23T01:34:28.004Z,6.17
2019-04-23T01:36:54.615Z,6.50
2019-04-23T01:39:20.445Z,6.23
2019-04-23T01:41:58.688Z,5.87
2019-04-23T01:44:32.760Z,6.92
2019-04-23T01:46:54.506Z,6.65
2019-04-23T01:49:30.563Z,7.10
2019-04-23T01:51:54.924Z,7.17
2019-04-23T01:54:28.913Z,7.25
2019-04-23T01:56:55.618Z,6.87
2019-04-23T01:59:25.123Z,6.12
2019-04-23T02:01:58.426Z,6.65
2019-04-23T02:04:28.584Z,7.08
2019-04-23T02:07:01.193Z,7.15
2019-04-23T02:09:40.167Z,6.60
2019-04-23T02:11:59.058Z,7.10
2019-04-23T02:14:36.459Z,6.42
2019-04-23T02:17:00.808Z,7.80
2019-04-23T02:22:08.861Z,7.05
2019-04-23T02:24:41.679Z,6.90
2019-04-23T02:27:12.119Z,7.20
2019-04-23T02:29:51.425Z,7.15
2019-04-23T02:32:10.359Z,7.62
2019-04-23T02:35:13.434Z,7.35
2019-04-23T02:37:22.422Z,7.37
2019-04-23T02:42:43.303Z,7.83
2019-04-23T02:44:48.936Z,7.53
2019-04-23T02:47:23.476Z,7.47
2019-04-23T02:52:21.794Z,7.95
2019-04-23T02:55:09.004Z,7.45
2019-04-23T02:57:24.701Z,7.70
2019-04-23T03:00:11.602Z,7.92
2019-04-23T03:02:36.991Z,7.92
2019-04-23T03:04:57.089Z,7.75
2019-04-23T03:07:38.964Z,8.30
2019-04-23T03:09:58.884Z,8.08
2019-04-23T03:15:13.256Z,9.10
2019-04-23T03:17:59.161Z,8.63
2019-04-23T03:20:48.377Z,8.58
2019-04-23T03:25:36.561Z,10.10
2019-04-23T03:28:23.135Z,8.60
2019-04-23T03:38:41.934Z,8.73
2019-04-23T03:46:12.269Z,9.03
2019-04-23T03:48:38.779Z,8.85
2019-04-23T03:50:53.462Z,8.83
2019-04-23T03:53:43.206Z,9.10
2019-04-23T03:56:05.838Z,8.90
2019-04-23T04:04:14.847Z,9.00
2019-04-23T04:06:05.455Z,9.78
2019-04-23T04:08:26.082Z,15.48
2019-04-23T04:16:21.853Z,8.83
2019-04-23T04:18:44.214Z,8.75
2019-04-23T04:26:13.866Z,9.63
2019-04-23T04:31:34.733Z,9.98
2019-04-23T04:34:00.663Z,8.50
2019-04-23T04:38:57.189Z,9.65
2019-04-23T04:44:02.524Z,11.80
2019-04-23T04:46:21.416Z,9.93
2019-04-23T04:48:54.872Z,9.88
2019-04-23T04:51:20.734Z,9.60
2019-04-23T04:56:18.854Z,9.93
2019-04-23T05:01:28.362Z,9.63
2019-04-23T05:03:32.764Z,9.68
2019-04-23T05:08:54.425Z,9.58
2019-04-23T05:11:30.683Z,9.85
2019-04-23T05:16:24.303Z,10.38
2019-04-23T05:18:52.103Z,9.70
2019-04-23T05:21:21.460Z,10.88
2019-04-23T05:34:00.302Z,10.15
2019-04-23T05:36:41.534Z,10.65
2019-04-23T05:39:07.559Z,9.53
2019-04-23T05:41:36.899Z,10.20
2019-04-23T05:44:14.530Z,10.50
2019-04-23T05:49:12.838Z,11.50
2019-04-23T05:51:48.868Z,11.18
2019-04-23T05:54:08.723Z,10.00
2019-04-23T05:56:38.599Z,10.23
2019-04-23T05:59:14.660Z,10.20
2019-04-23T06:01:53.968Z,10.03
2019-04-23T06:07:11.537Z,9.50
2019-04-23T06:09:14.052Z,10.15
2019-04-23T06:11:50.958Z,10.98
2019-04-23T06:22:07.471Z,10.58
2019-04-23T06:24:24.310Z,10.65
2019-04-23T06:29:25.667Z,10.55
2019-04-23T06:31:50.883Z,9.98
2019-04-23T06:34:23.402Z,11.38
2019-04-23T06:36:54.964Z,10.65
2019-04-23T06:39:17.712Z,9.98
2019-04-23T06:44:25.609Z,10.10
2019-04-23T06:47:03.107Z,10.05
2019-04-23T06:49:30.869Z,10.43
2019-04-23T06:57:11.418Z,9.55
2019-04-23T06:59:30.747Z,10.20
2019-04-23T07:02:09.551Z,10.20
2019-04-23T07:04:38.858Z,10.88
2019-04-23T07:07:25.606Z,9.40
2019-04-23T07:09:29.251Z,10.08
2019-04-23T07:12:05.342Z,9.58
2019-04-23T07:14:40.459Z,10.25
2019-04-23T07:17:04.079Z,9.88
2019-04-23T07:19:39.308Z,9.75
2019-04-23T07:22:14.875Z,9.45
2019-04-23T07:24:36.169Z,9.48
2019-04-23T07:27:10.529Z,9.63
2019-04-23T07:29:43.561Z,9.70
2019-04-23T07:32:05.879Z,8.75
2019-04-23T07:34:41.595Z,9.88
2019-04-23T07:37:12.523Z,9.25
2019-04-23T07:40:11.037Z,9.80
2019-04-23T07:48:11.015Z,8.85
2019-04-23T07:50:41.238Z,8.58
2019-04-23T07:53:12.896Z,9.00
2019-04-23T08:00:49.134Z,8.15
2019-04-23T08:03:17.306Z,8.88
2019-04-23T08:05:39.619Z,8.70
2019-04-23T08:10:46.616Z,8.30
2019-04-23T08:13:16.226Z,8.10
2019-04-23T08:15:43.030Z,7.93
2019-04-23T08:18:13.471Z,8.17
2019-04-23T08:20:55.646Z,7.53
2019-04-23T08:23:16.453Z,7.70
2019-04-23T08:25:52.374Z,8.30
2019-04-23T08:28:35.460Z,7.90
2019-04-23T08:30:52.733Z,8.10
2019-04-23T08:33:19.165Z,7.90
2019-04-23T08:35:59.002Z,8.20
2019-04-23T08:38:26.403Z,7.47
2019-04-23T08:41:02.843Z,7.77
2019-04-23T08:45:52.493Z,7.40
2019-04-23T08:48:29.062Z,7.63
2019-04-23T08:50:57.890Z,7.60
2019-04-23T08:56:05.081Z,8.07
2019-04-23T09:00:59.165Z,7.50
2019-04-23T09:08:47.574Z,7.03
2019-04-23T09:11:04.770Z,7.20
2019-04-23T09:16:15.537Z,7.03
2019-04-23T09:18:46.082Z,7.20
2019-04-23T09:21:03.978Z,7.20
2019-04-23T09:28:41.829Z,7.23
2019-04-23T09:31:24.927Z,7.60
2019-04-23T09:33:52.137Z,6.30
2019-04-23T09:36:34.016Z,5.67
2019-04-23T09:39:17.004Z,6.70
2019-04-23T09:41:37.950Z,6.87
2019-04-23T09:47:13.933Z,6.70
2019-04-23T09:49:39.778Z,6.10
2019-04-23T09:52:13.332Z,6.60
2019-04-23T09:54:48.839Z,6.13
2019-04-23T09:57:10.483Z,6.60
2019-04-23T09:59:43.306Z,5.83
2019-04-23T10:02:06.647Z,6.47
2019-04-23T10:04:31.999Z,6.20
2019-04-23T10:07:01.302Z,5.67
2019-04-23T10:09:20.803Z,6.13
2019-04-23T10:11:51.054Z,6.63
2019-04-23T10:14:20.758Z,6.47
2019-04-23T10:16:51.706Z,5.77
2019-04-23T10:19:20.059Z,6.30
2019-04-23T10:24:19.109Z,6.40
2019-04-23T10:26:48.203Z,6.30
2019-04-23T10:29:20.000Z,5.70
2019-04-23T10:31:49.375Z,17.37
2019-04-23T10:34:18.986Z,13.47
2019-04-23T10:36:49.349Z,6.17
2019-04-23T10:39:25.375Z,5.80
2019-04-23T10:41:50.373Z,5.60
2019-04-23T10:44:21.465Z,6.07
2019-04-23T10:47:23.459Z,5.40
2019-04-23T10:50:07.419Z,5.83
2019-04-23T10:54:59.325Z,5.57
2019-04-23T10:57:26.405Z,4.93
2019-04-23T10:59:53.597Z,5.63
2019-04-23T11:05:11.799Z,4.70
2019-04-23T11:10:09.821Z,5.33
2019-04-23T11:12:46.671Z,5.10
2019-04-23T11:15:25.646Z,5.47
2019-04-23T11:22:54.901Z,4.50
2019-04-23T11:25:21.696Z,5.50
2019-04-23T11:27:44.103Z,4.83
2019-04-23T11:30:31.958Z,5.13
2019-04-23T11:35:24.336Z,4.63
2019-04-23T11:40:15.328Z,5.00
2019-04-23T11:42:49.445Z,5.20
2019-04-23T11:45:30.593Z,4.73
2019-04-23T11:48:24.421Z,5.27
2019-04-23T11:52:51.739Z,5.60
2019-04-23T11:58:02.694Z,5.77
2019-04-23T12:03:01.717Z,5.43
2019-04-23T12:05:59.665Z,5.08
2019-04-23T12:08:34.986Z,4.70
2019-04-23T12:11:36.084Z,4.73
2019-04-23T12:13:52.562Z,4.95
2019-04-23T12:16:15.088Z,4.97
2019-04-23T12:18:43.614Z,4.77
2019-04-23T12:21:04.754Z,4.87
2019-04-23T12:23:48.546Z,5.53
2019-04-23T12:26:11.585Z,4.47
2019-04-23T12:28:44.062Z,5.00
2019-04-23T12:31:10.104Z,4.80
2019-04-23T12:33:44.041Z,4.80
2019-04-23T12:36:33.995Z,5.37
2019-04-23T12:38:56.748Z,5.33
2019-04-23T12:41:29.999Z,4.73
2019-04-23T12:44:03.486Z,4.50
2019-04-23T12:46:29.790Z,4.60
2019-04-23T12:51:35.073Z,4.17
2019-04-23T12:53:59.397Z,4.53
2019-04-23T12:56:41.596Z,4.03
2019-04-23T12:58:56.321Z,11.77
2019-04-23T13:01:35.784Z,7.00
2019-04-23T13:03:50.422Z,3.93
2019-04-23T13:06:27.648Z,4.37
2019-04-23T13:09:00.919Z,4.50
2019-04-23T13:14:25.189Z,4.63
2019-04-23T13:16:39.918Z,5.40
2019-04-23T13:19:14.374Z,4.17
2019-04-23T13:21:53.520Z,4.23
2019-04-23T13:24:09.529Z,4.67
2019-04-23T13:26:39.511Z,5.00
2019-04-23T13:29:15.751Z,4.30
2019-04-23T13:31:34.582Z,4.90
2019-04-23T13:34:13.480Z,4.17
2019-04-23T13:36:45.377Z,4.73
2019-04-23T13:39:14.576Z,4.73
2019-04-23T13:41:53.244Z,4.07
2019-04-23T13:44:08.422Z,4.13
2019-04-23T13:46:35.826Z,4.00
2019-04-23T13:49:07.380Z,5.10
2019-04-23T13:51:44.774Z,4.13
2019-04-23T13:54:46.903Z,4.63
2019-04-23T13:57:13.156Z,3.70
2019-04-23T14:06:55.635Z,4.77
2019-04-23T14:11:58.361Z,4.80
2019-04-23T14:17:23.752Z,4.55
2019-04-23T14:19:36.436Z,4.77
2019-04-23T14:22:31.305Z,5.03
2019-04-23T14:24:53.242Z,4.73
2019-04-23T14:27:17.961Z,5.20
2019-04-23T14:29:50.315Z,4.90
2019-04-23T14:32:20.818Z,4.10
2019-04-23T14:34:58.451Z,5.10
2019-04-23T14:37:13.206Z,5.03
2019-04-23T14:45:17.247Z,5.13
2019-04-23T14:50:23.583Z,5.27
2019-04-23T14:52:41.302Z,5.10
2019-04-23T14:55:40.243Z,5.60
2019-04-23T14:57:43.856Z,5.13
2019-04-23T15:00:09.763Z,5.90
2019-04-23T15:05:15.394Z,6.00
2019-04-23T15:07:34.644Z,5.57
2019-04-23T15:12:40.239Z,7.50
2019-04-23T15:17:40.607Z,5.40
2019-04-23T15:20:08.339Z,6.07
2019-04-23T15:22:57.335Z,5.77
2019-04-23T15:30:03.597Z,5.57
2019-04-23T15:35:22.132Z,6.20
2019-04-23T15:37:58.268Z,6.40
2019-04-23T15:42:50.783Z,5.30
2019-04-23T15:45:15.126Z,6.47
2019-04-23T15:47:48.823Z,9.47
2019-04-23T15:52:51.527Z,6.00
2019-04-23T15:55:12.442Z,6.00
2019-04-23T15:58:01.552Z,6.10
2019-04-23T16:00:15.967Z,6.33
2019-04-23T16:02:18.171Z,5.90
2019-04-23T16:04:47.075Z,6.27
2019-04-23T16:07:31.788Z,5.83
2019-04-23T16:10:19.132Z,5.83
2019-04-23T16:12:55.378Z,6.80
2019-04-23T16:15:38.530Z,6.60
2019-04-23T16:18:03.912Z,5.57
2019-04-23T16:23:10.979Z,5.97
2019-04-23T16:25:45.734Z,5.50
2019-04-23T16:28:09.358Z,6.23
2019-04-23T16:30:39.753Z,5.50
2019-04-23T16:33:16.275Z,5.80
2019-04-23T16:38:23.295Z,5.87
2019-04-23T16:43:14.509Z,6.77
2019-04-23T16:45:46.037Z,6.10
2019-04-23T16:48:25.665Z,7.30
2019-04-23T16:51:00.819Z,7.13
2019-04-23T16:55:49.770Z,7.20
2019-04-23T17:01:02.567Z,7.33
2019-04-23T17:05:56.823Z,6.57
2019-04-23T17:11:02.769Z,7.90
2019-04-23T17:13:20.938Z,6.30
2019-04-23T17:18:26.239Z,6.63
2019-04-23T17:20:50.579Z,7.17
2019-04-23T17:23:35.784Z,6.30
2019-04-23T17:25:55.667Z,7.07
2019-04-23T17:28:21.703Z,6.87
2019-04-23T17:31:03.355Z,6.97
2019-04-23T17:33:33.258Z,7.43
2019-04-23T17:36:13.216Z,6.87
2019-04-23T17:41:13.722Z,6.80
2019-04-23T17:43:54.659Z,7.05
2019-04-23T17:46:14.711Z,7.40
2019-04-23T17:48:47.779Z,7.30
2019-04-23T17:51:13.256Z,32.17
2019-04-23T17:53:52.124Z,8.27
2019-04-23T17:56:27.245Z,6.70
2019-04-23T17:58:52.277Z,7.17
2019-04-23T18:03:55.832Z,7.00
2019-04-23T18:09:00.558Z,7.20
2019-04-23T18:11:23.276Z,6.70
2019-04-23T18:13:57.092Z,7.27
2019-04-23T18:16:35.478Z,7.07
2019-04-23T18:19:00.747Z,6.30
2019-04-23T18:21:42.147Z,7.17
2019-04-23T18:27:01.399Z,6.97
2019-04-23T18:29:31.637Z,6.33
2019-04-23T18:32:17.049Z,6.63
2019-04-23T18:35:04.398Z,6.90
2019-04-23T18:37:17.792Z,7.40
2019-04-23T18:39:48.233Z,7.30
2019-04-23T18:47:27.784Z,7.33
2019-04-23T18:49:45.398Z,7.43
2019-04-23T18:52:29.935Z,8.80
2019-04-23T18:55:08.436Z,8.23
2019-04-23T18:57:13.249Z,8.27
2019-04-23T18:59:50.965Z,8.13
2019-04-23T19:02:36.959Z,7.70
2019-04-23T19:07:32.249Z,8.20
2019-04-23T19:12:48.209Z,7.53
2019-04-23T19:15:23.513Z,7.53
2019-04-23T19:20:32.264Z,7.80
2019-04-23T19:22:53.041Z,7.20
2019-04-23T19:25:25.117Z,7.83
2019-04-23T19:27:58.497Z,7.70
2019-04-23T19:30:31.295Z,8.53
2019-04-23T19:32:59.138Z,8.57
2019-04-23T19:35:39.946Z,8.40
2019-04-23T19:40:30.068Z,7.93
2019-04-23T19:42:55.426Z,8.87
2019-04-23T19:45:29.566Z,8.50
2019-04-23T19:48:00.187Z,8.30
2019-04-23T19:50:38.853Z,8.20
2019-04-23T19:53:14.266Z,9.13
2019-04-23T19:55:24.226Z,8.30
2019-04-23T19:58:08.442Z,7.83
2019-04-23T20:00:37.579Z,7.97
2019-04-23T20:03:13.667Z,8.87
2019-04-23T20:05:30.639Z,11.20
2019-04-23T20:08:02.587Z,8.67
2019-04-23T20:10:30.447Z,9.60
2019-04-23T20:12:54.398Z,9.13
2019-04-23T20:15:41.490Z,8.93
2019-04-23T20:17:53.935Z,9.90
2019-04-23T20:20:33.673Z,8.67
2019-04-23T20:22:55.580Z,8.57
2019-04-23T20:28:14.879Z,8.73
2019-04-23T20:31:03.507Z,8.97
2019-04-23T20:38:33.414Z,9.13
2019-04-23T20:40:53.711Z,9.40
2019-04-23T20:43:23.331Z,9.67
2019-04-23T20:45:55.814Z,9.43
2019-04-23T20:48:25.189Z,9.67
2019-04-23T20:53:22.802Z,10.47
2019-04-23T20:58:57.000Z,10.93
2019-04-23T21:01:34.815Z,10.30
2019-04-23T21:06:47.049Z,10.20
2019-04-23T21:11:26.758Z,10.23
2019-04-23T21:14:10.980Z,10.80
2019-04-23T21:16:34.342Z,10.90
2019-04-23T21:19:10.649Z,10.68
2019-04-23T21:21:27.545Z,10.50
2019-04-23T21:26:28.442Z,11.20
2019-04-23T21:28:54.314Z,11.33
2019-04-23T21:31:22.755Z,10.10
2019-04-23T21:34:05.487Z,11.25
2019-04-23T21:36:45.632Z,11.12
2019-04-23T21:39:26.907Z,10.80
2019-04-23T21:42:14.498Z,10.75
2019-04-23T21:44:32.421Z,10.50
2019-04-23T21:49:48.675Z,11.70
2019-04-23T21:54:41.260Z,11.55
2019-04-23T21:57:02.708Z,11.63
2019-04-23T21:59:35.424Z,10.72
2019-04-23T22:02:09.177Z,11.87
2019-04-23T22:07:07.029Z,12.07
2019-04-23T22:12:08.729Z,11.65
2019-04-23T22:14:40.008Z,12.40
2019-04-23T22:17:09.548Z,11.30
2019-04-23T22:19:42.189Z,11.50
2019-04-23T22:22:01.166Z,12.50
2019-04-23T22:24:46.636Z,12.60
2019-04-23T22:27:09.794Z,11.93
2019-04-23T22:29:41.895Z,12.23
2019-04-23T22:32:15.203Z,11.97
2019-04-23T22:34:46.898Z,11.53
2019-04-23T22:37:17.653Z,11.73
2019-04-23T22:39:45.682Z,11.93
2019-04-23T22:42:26.974Z,12.47
2019-04-23T22:45:01.070Z,12.05
2019-04-23T22:47:06.019Z,11.65
2019-04-23T22:49:57.182Z,12.90
2019-04-23T22:54:57.280Z,11.75
2019-04-23T22:57:09.345Z,12.00
2019-04-23T23:00:06.138Z,12.20
2019-04-23T23:02:54.421Z,12.20
2019-04-23T23:08:03.048Z,12.90
2019-04-23T23:10:12.883Z,13.50
2019-04-23T23:12:56.051Z,12.95
2019-04-23T23:15:19.078Z,11.93
2019-04-23T23:23:01.245Z,12.43
2019-04-23T23:25:25.267Z,13.32
2019-04-23T23:30:23.378Z,12.80
2019-04-23T23:32:57.124Z,13.53
2019-04-23T23:37:49.906Z,12.58
2019-04-23T23:43:05.443Z,11.73
2019-04-23T23:45:25.661Z,11.28
2019-04-23T23:50:25.577Z,11.68
2019-04-23T23:55:33.561Z,10.55
2019-04-23T23:58:11.059Z,10.15
